sensor_id;sensor_type;location;lat;lon;timestamp;pressure;altitude;pressure_sealevel;temperature;humidity
22651;BME280;11492;42.646;23.400;2023-04-09T00:01:03;95251.81;;;8.47;75.03
22651;BME280;11492;42.646;23.400;2023-04-09T00:03:28;95242.66;;;8.37;74.63
22651;BME280;11492;42.646;23.400;2023-04-09T00:05:54;95253.28;;;8.34;74.74
22651;BME280;11492;42.646;23.400;2023-04-09T00:08:20;95256.81;;;8.33;74.18
22651;BME280;11492;42.646;23.400;2023-04-09T00:10:48;95256.00;;;8.33;75.33
22651;BME280;11492;42.646;23.400;2023-04-09T00:13:13;95248.75;;;8.21;74.94
22651;BME280;11492;42.646;23.400;2023-04-09T00:15:39;95259.22;;;8.19;75.72
22651;BME280;11492;42.646;23.400;2023-04-09T00:18:04;95254.50;;;8.07;76.39
22651;BME280;11492;42.646;23.400;2023-04-09T00:20:29;95259.16;;;8.03;76.11
22651;BME280;11492;42.646;23.400;2023-04-09T00:22:56;95258.53;;;8.09;76.62
22651;BME280;11492;42.646;23.400;2023-04-09T00:25:22;95262.09;;;8.08;76.07
22651;BME280;11492;42.646;23.400;2023-04-09T00:27:48;95254.94;;;7.95;76.62
22651;BME280;11492;42.646;23.400;2023-04-09T00:30:13;95267.78;;;7.95;76.48
22651;BME280;11492;42.646;23.400;2023-04-09T00:32:40;95263.63;;;7.94;77.23
22651;BME280;11492;42.646;23.400;2023-04-09T00:35:06;95266.69;;;7.97;77.21
22651;BME280;11492;42.646;23.400;2023-04-09T00:37:31;95255.44;;;7.98;77.29
22651;BME280;11492;42.646;23.400;2023-04-09T00:39:57;95265.56;;;7.99;77.47
22651;BME280;11492;42.646;23.400;2023-04-09T00:42:22;95266.81;;;7.95;77.30
22651;BME280;11492;42.646;23.400;2023-04-09T00:44:47;95261.38;;;7.98;77.64
22651;BME280;11492;42.646;23.400;2023-04-09T00:47:13;95249.63;;;7.96;77.54
22651;BME280;11492;42.646;23.400;2023-04-09T00:49:38;95250.28;;;7.98;77.24
22651;BME280;11492;42.646;23.400;2023-04-09T00:52:04;95252.06;;;7.97;77.47
22651;BME280;11492;42.646;23.400;2023-04-09T00:54:29;95244.81;;;7.93;77.34
22651;BME280;11492;42.646;23.400;2023-04-09T00:56:56;95250.75;;;7.94;77.30
22651;BME280;11492;42.646;23.400;2023-04-09T00:59:23;95258.81;;;7.98;77.57
22651;BME280;11492;42.646;23.400;2023-04-09T01:01:49;95243.22;;;7.92;77.45
22651;BME280;11492;42.646;23.400;2023-04-09T01:04:14;95241.13;;;7.95;76.73
22651;BME280;11492;42.646;23.400;2023-04-09T01:06:45;95247.41;;;8.01;76.92
22651;BME280;11492;42.646;23.400;2023-04-09T01:14:28;95267.31;;;7.99;77.05
22651;BME280;11492;42.646;23.400;2023-04-09T01:20:38;95267.44;;;7.90;77.03
22651;BME280;11492;42.646;23.400;2023-04-09T01:23:18;95271.75;;;7.81;77.13
22651;BME280;11492;42.646;23.400;2023-04-09T01:26:06;95267.09;;;7.77;77.69
22651;BME280;11492;42.646;23.400;2023-04-09T01:28:52;95276.69;;;7.67;78.12
22651;BME280;11492;42.646;23.400;2023-04-09T01:31:19;95266.25;;;7.61;77.65
22651;BME280;11492;42.646;23.400;2023-04-09T01:33:46;95271.84;;;7.64;78.19
22651;BME280;11492;42.646;23.400;2023-04-09T01:36:12;95272.81;;;7.63;77.95
22651;BME280;11492;42.646;23.400;2023-04-09T01:38:40;95273.47;;;7.65;78.22
22651;BME280;11492;42.646;23.400;2023-04-09T01:41:08;95241.28;;;7.46;78.35
22651;BME280;11492;42.646;23.400;2023-04-09T01:43:35;95267.38;;;7.66;78.60
22651;BME280;11492;42.646;23.400;2023-04-09T01:46:01;95261.59;;;7.64;78.29
22651;BME280;11492;42.646;23.400;2023-04-09T01:48:29;95270.44;;;7.70;77.91
22651;BME280;11492;42.646;23.400;2023-04-09T01:50:56;95266.75;;;7.72;78.24
22651;BME280;11492;42.646;23.400;2023-04-09T01:53:22;95266.59;;;7.73;78.23
22651;BME280;11492;42.646;23.400;2023-04-09T01:55:47;95266.75;;;7.72;78.04
22651;BME280;11492;42.646;23.400;2023-04-09T01:58:13;95272.88;;;7.79;77.96
22651;BME280;11492;42.646;23.400;2023-04-09T02:00:46;95271.91;;;7.80;77.79
22651;BME280;11492;42.646;23.400;2023-04-09T02:03:22;95266.78;;;7.80;77.31
22651;BME280;11492;42.646;23.400;2023-04-09T02:06:16;95273.19;;;7.76;77.33
22651;BME280;11492;42.646;23.400;2023-04-09T02:08:46;95268.38;;;7.73;77.03
22651;BME280;11492;42.646;23.400;2023-04-09T02:11:14;95269.13;;;7.66;77.53
22651;BME280;11492;42.646;23.400;2023-04-09T02:13:41;95267.97;;;7.60;77.25
22651;BME280;11492;42.646;23.400;2023-04-09T02:16:09;95277.00;;;7.64;77.12
22651;BME280;11492;42.646;23.400;2023-04-09T02:18:35;95267.06;;;7.61;77.17
22651;BME280;11492;42.646;23.400;2023-04-09T02:21:04;95273.13;;;7.60;77.39
22651;BME280;11492;42.646;23.400;2023-04-09T02:23:30;95272.59;;;7.49;77.36
22651;BME280;11492;42.646;23.400;2023-04-09T02:26:00;95270.47;;;7.45;77.50
22651;BME280;11492;42.646;23.400;2023-04-09T02:28:26;95265.69;;;7.42;77.81
22651;BME280;11492;42.646;23.400;2023-04-09T02:30:51;95266.75;;;7.39;77.55
22651;BME280;11492;42.646;23.400;2023-04-09T02:33:16;95270.47;;;7.37;77.80
22651;BME280;11492;42.646;23.400;2023-04-09T02:35:42;95264.47;;;7.28;77.88
22651;BME280;11492;42.646;23.400;2023-04-09T02:38:08;95263.06;;;7.34;77.80
22651;BME280;11492;42.646;23.400;2023-04-09T02:40:40;95267.50;;;7.24;78.07
22651;BME280;11492;42.646;23.400;2023-04-09T02:43:06;95247.22;;;7.13;78.25
22651;BME280;11492;42.646;23.400;2023-04-09T02:45:32;95256.56;;;7.14;78.91
22651;BME280;11492;42.646;23.400;2023-04-09T02:47:57;95263.59;;;7.12;79.03
22651;BME280;11492;42.646;23.400;2023-04-09T02:50:23;95243.31;;;7.01;79.24
22651;BME280;11492;42.646;23.400;2023-04-09T02:52:48;95260.38;;;7.10;80.40
22651;BME280;11492;42.646;23.400;2023-04-09T02:55:14;95252.16;;;7.07;79.63
22651;BME280;11492;42.646;23.400;2023-04-09T02:57:40;95250.91;;;7.11;79.51
22651;BME280;11492;42.646;23.400;2023-04-09T03:00:06;95251.06;;;7.09;79.20
22651;BME280;11492;42.646;23.400;2023-04-09T03:02:31;95248.50;;;7.09;79.59
22651;BME280;11492;42.646;23.400;2023-04-09T03:04:57;95260.97;;;7.04;79.45
22651;BME280;11492;42.646;23.400;2023-04-09T03:07:22;95253.88;;;6.98;79.88
22651;BME280;11492;42.646;23.400;2023-04-09T03:09:48;95256.16;;;7.01;79.62
22651;BME280;11492;42.646;23.400;2023-04-09T03:12:13;95249.31;;;6.85;80.08
22651;BME280;11492;42.646;23.400;2023-04-09T03:14:39;95257.03;;;6.93;79.92
22651;BME280;11492;42.646;23.400;2023-04-09T03:17:04;95251.91;;;6.93;80.10
22651;BME280;11492;42.646;23.400;2023-04-09T03:19:30;95254.63;;;6.91;79.46
22651;BME280;11492;42.646;23.400;2023-04-09T03:21:55;95259.75;;;6.91;79.26
22651;BME280;11492;42.646;23.400;2023-04-09T03:24:21;95255.41;;;6.84;79.29
22651;BME280;11492;42.646;23.400;2023-04-09T03:26:46;95259.84;;;6.82;79.57
22651;BME280;11492;42.646;23.400;2023-04-09T03:29:11;95257.81;;;6.85;79.63
22651;BME280;11492;42.646;23.400;2023-04-09T03:31:37;95255.69;;;6.81;79.49
22651;BME280;11492;42.646;23.400;2023-04-09T03:34:02;95257.16;;;6.83;79.73
22651;BME280;11492;42.646;23.400;2023-04-09T03:36:28;95248.00;;;6.81;79.41
22651;BME280;11492;42.646;23.400;2023-04-09T03:38:53;95248.00;;;6.81;78.93
22651;BME280;11492;42.646;23.400;2023-04-09T03:41:18;95263.75;;;6.86;79.55
22651;BME280;11492;42.646;23.400;2023-04-09T03:43:44;95255.03;;;6.79;79.27
22651;BME280;11492;42.646;23.400;2023-04-09T03:46:16;95269.03;;;6.84;79.43
22651;BME280;11492;42.646;23.400;2023-04-09T03:48:42;95271.25;;;6.79;79.31
22651;BME280;11492;42.646;23.400;2023-04-09T03:51:12;95267.88;;;6.79;79.54
22651;BME280;11492;42.646;23.400;2023-04-09T03:53:38;95251.91;;;6.68;79.73
22651;BME280;11492;42.646;23.400;2023-04-09T03:56:04;95271.53;;;6.76;80.16
22651;BME280;11492;42.646;23.400;2023-04-09T03:58:29;95282.59;;;6.77;80.76
22651;BME280;11492;42.646;23.400;2023-04-09T04:00:55;95275.25;;;6.82;80.61
22651;BME280;11492;42.646;23.400;2023-04-09T04:03:20;95270.91;;;6.82;80.15
22651;BME280;11492;42.646;23.400;2023-04-09T04:05:46;95274.00;;;6.86;80.55
22651;BME280;11492;42.646;23.400;2023-04-09T04:08:11;95274.97;;;6.85;79.88
22651;BME280;11492;42.646;23.400;2023-04-09T04:10:36;95274.66;;;6.88;80.40
22651;BME280;11492;42.646;23.400;2023-04-09T04:13:02;95269.66;;;6.86;80.07
22651;BME280;11492;42.646;23.400;2023-04-09T04:15:28;95279.50;;;6.91;80.45
22651;BME280;11492;42.646;23.400;2023-04-09T04:17:53;95278.25;;;6.95;80.05
22651;BME280;11492;42.646;23.400;2023-04-09T04:20:19;95279.84;;;6.96;80.49
22651;BME280;11492;42.646;23.400;2023-04-09T04:22:45;95284.53;;;7.00;80.67
22651;BME280;11492;42.646;23.400;2023-04-09T04:25:10;95268.81;;;7.03;80.46
22651;BME280;11492;42.646;23.400;2023-04-09T04:27:36;95282.81;;;7.08;80.51
22651;BME280;11492;42.646;23.400;2023-04-09T04:30:01;95288.59;;;7.10;80.62
22651;BME280;11492;42.646;23.400;2023-04-09T04:32:27;95282.50;;;7.11;80.12
22651;BME280;11492;42.646;23.400;2023-04-09T04:34:53;95290.25;;;7.19;80.17
22651;BME280;11492;42.646;23.400;2023-04-09T04:37:18;95285.47;;;7.24;79.49
22651;BME280;11492;42.646;23.400;2023-04-09T04:39:44;95280.31;;;7.24;79.12
22651;BME280;11492;42.646;23.400;2023-04-09T04:42:09;95281.00;;;7.26;78.99
22651;BME280;11492;42.646;23.400;2023-04-09T04:44:36;95271.38;;;7.28;78.70
22651;BME280;11492;42.646;23.400;2023-04-09T04:47:01;95270.63;;;7.35;78.80
22651;BME280;11492;42.646;23.400;2023-04-09T04:49:26;95285.59;;;7.47;79.15
22651;BME280;11492;42.646;23.400;2023-04-09T04:51:52;95274.19;;;7.42;78.56
22651;BME280;11492;42.646;23.400;2023-04-09T04:54:17;95291.44;;;7.57;78.72
22651;BME280;11492;42.646;23.400;2023-04-09T04:56:43;95292.41;;;7.64;78.16
22651;BME280;11492;42.646;23.400;2023-04-09T04:59:08;95294.69;;;7.75;78.77
22651;BME280;11492;42.646;23.400;2023-04-09T05:01:33;95284.44;;;7.75;78.81
22651;BME280;11492;42.646;23.400;2023-04-09T05:03:59;95286.41;;;7.89;78.43
22651;BME280;11492;42.646;23.400;2023-04-09T05:06:27;95296.41;;;7.99;78.45
22651;BME280;11492;42.646;23.400;2023-04-09T05:08:54;95296.47;;;8.07;77.80
22651;BME280;11492;42.646;23.400;2023-04-09T05:11:23;95285.91;;;8.42;78.31
22651;BME280;11492;42.646;23.400;2023-04-09T05:13:48;95286.41;;;8.53;75.83
22651;BME280;11492;42.646;23.400;2023-04-09T05:16:19;95282.06;;;9.08;75.21
22651;BME280;11492;42.646;23.400;2023-04-09T05:18:45;95281.34;;;9.38;72.70
22651;BME280;11492;42.646;23.400;2023-04-09T05:21:11;95281.81;;;9.49;71.94
22651;BME280;11492;42.646;23.400;2023-04-09T05:23:37;95277.44;;;9.49;71.55
22651;BME280;11492;42.646;23.400;2023-04-09T05:26:02;95288.31;;;9.75;71.76
22651;BME280;11492;42.646;23.400;2023-04-09T05:28:28;95286.34;;;9.93;70.79
22651;BME280;11492;42.646;23.400;2023-04-09T05:30:53;95289.69;;;10.01;69.32
22651;BME280;11492;42.646;23.400;2023-04-09T05:33:19;95291.94;;;10.04;69.03
22651;BME280;11492;42.646;23.400;2023-04-09T05:35:44;95283.59;;;9.94;69.55
22651;BME280;11492;42.646;23.400;2023-04-09T05:38:10;95284.09;;;9.82;69.64
22651;BME280;11492;42.646;23.400;2023-04-09T05:40:35;95277.84;;;9.84;69.42
22651;BME280;11492;42.646;23.400;2023-04-09T05:43:01;95268.00;;;9.72;69.98
22651;BME280;11492;42.646;23.400;2023-04-09T05:45:26;95288.81;;;9.78;69.85
22651;BME280;11492;42.646;23.400;2023-04-09T05:47:54;95297.16;;;9.80;69.01
22651;BME280;11492;42.646;23.400;2023-04-09T05:50:20;95292.31;;;9.77;69.12
22651;BME280;11492;42.646;23.400;2023-04-09T05:52:46;95297.34;;;9.71;69.30
22651;BME280;11492;42.646;23.400;2023-04-09T05:55:11;95292.19;;;9.71;69.42
22651;BME280;11492;42.646;23.400;2023-04-09T05:57:37;95292.69;;;9.74;69.59
22651;BME280;11492;42.646;23.400;2023-04-09T06:00:02;95279.63;;;9.76;70.01
22651;BME280;11492;42.646;23.400;2023-04-09T06:02:28;95295.56;;;9.79;69.20
22651;BME280;11492;42.646;23.400;2023-04-09T06:04:53;95283.00;;;9.76;68.33
22651;BME280;11492;42.646;23.400;2023-04-09T06:07:19;95297.84;;;9.74;68.32
22651;BME280;11492;42.646;23.400;2023-04-09T06:09:45;95287.53;;;9.74;68.67
22651;BME280;11492;42.646;23.400;2023-04-09T06:12:11;95291.84;;;9.82;68.79
22651;BME280;11492;42.646;23.400;2023-04-09T06:14:37;95294.13;;;9.85;67.99
22651;BME280;11492;42.646;23.400;2023-04-09T06:17:03;95287.00;;;9.87;67.51
22651;BME280;11492;42.646;23.400;2023-04-09T06:19:28;95291.84;;;9.90;67.72
22651;BME280;11492;42.646;23.400;2023-04-09T06:21:54;95289.75;;;9.85;66.58
22651;BME280;11492;42.646;23.400;2023-04-09T06:24:19;95286.06;;;9.80;66.30
22651;BME280;11492;42.646;23.400;2023-04-09T06:26:45;95284.50;;;9.63;64.34
22651;BME280;11492;42.646;23.400;2023-04-09T06:29:10;95288.81;;;9.70;64.18
22651;BME280;11492;42.646;23.400;2023-04-09T06:31:35;95298.63;;;9.75;64.60
22651;BME280;11492;42.646;23.400;2023-04-09T06:34:01;95290.84;;;9.83;64.46
22651;BME280;11492;42.646;23.400;2023-04-09T06:36:26;95295.22;;;9.90;63.72
22651;BME280;11492;42.646;23.400;2023-04-09T06:38:52;95294.38;;;9.97;62.91
22651;BME280;11492;42.646;23.400;2023-04-09T06:41:24;95300.00;;;10.01;63.15
22651;BME280;11492;42.646;23.400;2023-04-09T06:43:51;95299.13;;;10.16;63.48
22651;BME280;11492;42.646;23.400;2023-04-09T06:46:16;95294.78;;;10.17;63.50
22651;BME280;11492;42.646;23.400;2023-04-09T06:48:44;95305.47;;;10.36;63.36
22651;BME280;11492;42.646;23.400;2023-04-09T06:51:10;95292.22;;;10.39;63.06
22651;BME280;11492;42.646;23.400;2023-04-09T06:53:37;95303.03;;;10.64;68.55
22651;BME280;11492;42.646;23.400;2023-04-09T06:56:03;95310.91;;;10.93;63.29
22651;BME280;11492;42.646;23.400;2023-04-09T06:58:29;95302.38;;;11.06;61.65
22651;BME280;11492;42.646;23.400;2023-04-09T07:00:55;95282.22;;;11.02;60.43
22651;BME280;11492;42.646;23.400;2023-04-09T07:03:20;95308.41;;;10.99;60.16
22651;BME280;11492;42.646;23.400;2023-04-09T07:05:45;95297.03;;;10.86;60.13
22651;BME280;11492;42.646;23.400;2023-04-09T07:08:11;95306.44;;;10.87;60.95
22651;BME280;11492;42.646;23.400;2023-04-09T07:10:37;95306.94;;;10.82;61.02
22651;BME280;11492;42.646;23.400;2023-04-09T07:13:02;95309.38;;;10.76;61.40
22651;BME280;11492;42.646;23.400;2023-04-09T07:15:28;95313.13;;;10.73;61.23
22651;BME280;11492;42.646;23.400;2023-04-09T07:17:53;95302.03;;;10.65;60.78
22651;BME280;11492;42.646;23.400;2023-04-09T07:20:19;95317.41;;;10.59;61.49
22651;BME280;11492;42.646;23.400;2023-04-09T07:22:44;95316.72;;;10.43;60.06
22651;BME280;11492;42.646;23.400;2023-04-09T07:25:10;95320.25;;;10.20;60.33
22651;BME280;11492;42.646;23.400;2023-04-09T07:27:35;95324.94;;;10.16;60.37
22651;BME280;11492;42.646;23.400;2023-04-09T07:30:01;95321.84;;;10.21;60.84
22651;BME280;11492;42.646;23.400;2023-04-09T07:32:27;95326.72;;;10.16;61.83
22651;BME280;11492;42.646;23.400;2023-04-09T07:34:53;95320.44;;;10.10;60.80
22651;BME280;11492;42.646;23.400;2023-04-09T07:37:19;95330.41;;;10.13;61.69
22651;BME280;11492;42.646;23.400;2023-04-09T07:39:45;95328.13;;;10.18;60.82
22651;BME280;11492;42.646;23.400;2023-04-09T07:42:11;95331.00;;;10.31;60.66
22651;BME280;11492;42.646;23.400;2023-04-09T07:44:37;95328.66;;;10.44;60.26
22651;BME280;11492;42.646;23.400;2023-04-09T07:47:03;95330.84;;;10.54;59.88
22651;BME280;11492;42.646;23.400;2023-04-09T07:49:28;95333.47;;;10.46;59.32
22651;BME280;11492;42.646;23.400;2023-04-09T07:51:55;95333.00;;;10.43;58.81
22651;BME280;11492;42.646;23.400;2023-04-09T07:54:20;95327.53;;;10.46;60.31
22651;BME280;11492;42.646;23.400;2023-04-09T07:56:46;95338.28;;;10.49;59.68
22651;BME280;11492;42.646;23.400;2023-04-09T07:59:12;95339.09;;;10.50;58.64
22651;BME280;11492;42.646;23.400;2023-04-09T08:01:39;95345.72;;;10.45;59.17
22651;BME280;11492;42.646;23.400;2023-04-09T08:04:04;95345.81;;;10.29;59.42
22651;BME280;11492;42.646;23.400;2023-04-09T08:06:30;95348.91;;;10.24;60.59
22651;BME280;11492;42.646;23.400;2023-04-09T08:08:56;95362.03;;;10.15;60.67
22651;BME280;11492;42.646;23.400;2023-04-09T08:11:21;95352.41;;;10.01;61.28
22651;BME280;11492;42.646;23.400;2023-04-09T08:13:52;95359.50;;;9.99;61.74
22651;BME280;11492;42.646;23.400;2023-04-09T08:16:18;95359.16;;;10.02;61.82
22651;BME280;11492;42.646;23.400;2023-04-09T08:18:43;95360.13;;;10.09;62.04
22651;BME280;11492;42.646;23.400;2023-04-09T08:21:09;95361.13;;;10.00;61.43
22651;BME280;11492;42.646;23.400;2023-04-09T08:23:35;95364.44;;;10.09;61.35
22651;BME280;11492;42.646;23.400;2023-04-09T08:26:02;95367.88;;;10.01;62.43
22651;BME280;11492;42.646;23.400;2023-04-09T08:28:28;95358.25;;;9.88;62.66
22651;BME280;11492;42.646;23.400;2023-04-09T08:30:53;95358.25;;;9.88;62.49
22651;BME280;11492;42.646;23.400;2023-04-09T08:33:18;95354.06;;;9.87;62.88
22651;BME280;11492;42.646;23.400;2023-04-09T08:35:44;95360.81;;;9.88;62.72
22651;BME280;11492;42.646;23.400;2023-04-09T08:38:09;95356.28;;;9.97;62.55
22651;BME280;11492;42.646;23.400;2023-04-09T08:40:35;95354.84;;;9.95;63.03
22651;BME280;11492;42.646;23.400;2023-04-09T08:43:04;95348.38;;;9.99;63.42
22651;BME280;11492;42.646;23.400;2023-04-09T08:45:30;95360.13;;;10.09;63.32
22651;BME280;11492;42.646;23.400;2023-04-09T08:47:56;95350.44;;;10.03;62.23
22651;BME280;11492;42.646;23.400;2023-04-09T08:50:27;95348.38;;;9.99;62.76
22651;BME280;11492;42.646;23.400;2023-04-09T08:52:53;95357.56;;;10.01;62.51
22651;BME280;11492;42.646;23.400;2023-04-09T08:55:20;95350.34;;;9.89;62.09
22651;BME280;11492;42.646;23.400;2023-04-09T08:57:46;95352.41;;;10.01;62.80
22651;BME280;11492;42.646;23.400;2023-04-09T09:00:12;95344.97;;;10.06;62.56
22651;BME280;11492;42.646;23.400;2023-04-09T09:02:37;95341.28;;;9.93;63.01
22651;BME280;11492;42.646;23.400;2023-04-09T09:05:04;95350.00;;;10.00;62.27
22651;BME280;11492;42.646;23.400;2023-04-09T09:07:31;95334.88;;;9.81;63.48
22651;BME280;11492;42.646;23.400;2023-04-09T09:10:00;95333.44;;;9.87;64.28
22651;BME280;11492;42.646;23.400;2023-04-09T09:12:37;95335.78;;;10.04;62.85
22651;BME280;11492;42.646;23.400;2023-04-09T09:15:04;95317.22;;;10.08;63.12
22651;BME280;11492;42.646;23.400;2023-04-09T09:17:30;95329.13;;;10.17;62.38
22651;BME280;11492;42.646;23.400;2023-04-09T09:19:57;95324.88;;;10.24;62.50
22651;BME280;11492;42.646;23.400;2023-04-09T09:22:23;95328.72;;;10.36;62.32
22651;BME280;11492;42.646;23.400;2023-04-09T09:24:50;95321.66;;;10.30;61.96
22651;BME280;11492;42.646;23.400;2023-04-09T09:27:36;95316.31;;;10.31;62.28
22651;BME280;11492;42.646;23.400;2023-04-09T09:30:04;95318.50;;;10.42;61.57
22651;BME280;11492;42.646;23.400;2023-04-09T09:32:33;95313.06;;;10.59;61.04
22651;BME280;11492;42.646;23.400;2023-04-09T09:35:03;95314.44;;;10.47;61.12
22651;BME280;11492;42.646;23.400;2023-04-09T09:37:30;95307.88;;;10.37;60.80
22651;BME280;11492;42.646;23.400;2023-04-09T09:39:57;95317.78;;;10.78;60.47
22651;BME280;11492;42.646;23.400;2023-04-09T09:42:22;95304.16;;;10.84;60.29
22651;BME280;11492;42.646;23.400;2023-04-09T09:44:49;95307.53;;;11.06;59.01
22651;BME280;11492;42.646;23.400;2023-04-09T09:47:17;95293.88;;;11.34;57.77
22651;BME280;11492;42.646;23.400;2023-04-09T09:49:42;95299.78;;;11.43;56.61
22651;BME280;11492;42.646;23.400;2023-04-09T09:52:09;95296.44;;;11.56;57.41
22651;BME280;11492;42.646;23.400;2023-04-09T09:54:40;95288.47;;;11.58;56.08
22651;BME280;11492;42.646;23.400;2023-04-09T09:57:09;95287.50;;;11.87;56.71
22651;BME280;11492;42.646;23.400;2023-04-09T09:59:40;95288.75;;;12.40;54.39
22651;BME280;11492;42.646;23.400;2023-04-09T10:02:18;95277.88;;;13.27;52.85
22651;BME280;11492;42.646;23.400;2023-04-09T10:04:44;95270.63;;;13.49;50.54
22651;BME280;11492;42.646;23.400;2023-04-09T10:07:10;95276.38;;;13.72;50.43
22651;BME280;11492;42.646;23.400;2023-04-09T10:09:40;95271.53;;;14.36;48.72
22651;BME280;11492;42.646;23.400;2023-04-09T10:12:08;95264.03;;;14.79;47.59
22651;BME280;11492;42.646;23.400;2023-04-09T10:14:35;95264.50;;;15.14;46.54
22651;BME280;11492;42.646;23.400;2023-04-09T10:17:01;95268.22;;;14.80;46.57
22651;BME280;11492;42.646;23.400;2023-04-09T10:19:29;95250.91;;;15.38;46.27
22651;BME280;11492;42.646;23.400;2023-04-09T10:21:59;95252.00;;;15.93;44.20
22651;BME280;11492;42.646;23.400;2023-04-09T10:24:28;95247.34;;;16.14;43.35
22651;BME280;11492;42.646;23.400;2023-04-09T10:26:56;95253.06;;;16.41;43.71
22651;BME280;11492;42.646;23.400;2023-04-09T10:29:33;95251.94;;;16.18;43.55
22651;BME280;11492;42.646;23.400;2023-04-09T10:32:05;95254.81;;;15.91;43.80
22651;BME280;11492;42.646;23.400;2023-04-09T10:34:37;95256.56;;;16.03;43.57
22651;BME280;11492;42.646;23.400;2023-04-09T10:37:06;95249.16;;;16.56;42.94
22651;BME280;11492;42.646;23.400;2023-04-09T10:39:33;95246.66;;;16.74;42.78
22651;BME280;11492;42.646;23.400;2023-04-09T10:42:00;95239.00;;;16.79;42.28
22651;BME280;11492;42.646;23.400;2023-04-09T10:44:28;95236.31;;;16.61;42.60
22651;BME280;11492;42.646;23.400;2023-04-09T10:46:57;95240.25;;;16.33;43.25
22651;BME280;11492;42.646;23.400;2023-04-09T10:49:24;95239.75;;;15.99;43.59
22651;BME280;11492;42.646;23.400;2023-04-09T10:52:01;95237.84;;;15.63;44.81
22651;BME280;11492;42.646;23.400;2023-04-09T10:59:34;95228.72;;;14.25;47.42
22651;BME280;11492;42.646;23.400;2023-04-09T11:02:00;95222.63;;;13.99;47.73
22651;BME280;11492;42.646;23.400;2023-04-09T11:04:38;95215.72;;;13.79;48.58
22651;BME280;11492;42.646;23.400;2023-04-09T11:07:05;95220.63;;;13.62;49.11
22651;BME280;11492;42.646;23.400;2023-04-09T11:09:34;95209.91;;;13.38;49.15
22651;BME280;11492;42.646;23.400;2023-04-09T11:12:00;95210.34;;;13.41;49.34
22651;BME280;11492;42.646;23.400;2023-04-09T11:14:26;95210.78;;;13.51;49.93
22651;BME280;11492;42.646;23.400;2023-04-09T11:16:52;95208.31;;;13.37;48.66
22651;BME280;11492;42.646;23.400;2023-04-09T11:19:19;95210.34;;;13.41;48.49
22651;BME280;11492;42.646;23.400;2023-04-09T11:21:44;95190.06;;;13.24;49.10
22651;BME280;11492;42.646;23.400;2023-04-09T11:24:14;95197.31;;;13.35;49.53
22651;BME280;11492;42.646;23.400;2023-04-09T11:26:39;95202.94;;;13.45;49.03
22651;BME280;11492;42.646;23.400;2023-04-09T11:29:08;95202.41;;;13.55;49.45
22651;BME280;11492;42.646;23.400;2023-04-09T11:31:35;95195.94;;;13.72;46.68
22651;BME280;11492;42.646;23.400;2023-04-09T11:34:01;95172.50;;;13.59;43.90
22651;BME280;11492;42.646;23.400;2023-04-09T11:36:27;95194.91;;;13.67;42.92
22651;BME280;11492;42.646;23.400;2023-04-09T11:38:53;95179.56;;;13.71;42.69
22651;BME280;11492;42.646;23.400;2023-04-09T11:41:36;95192.69;;;13.64;42.39
22651;BME280;11492;42.646;23.400;2023-04-09T11:44:02;95186.50;;;13.65;42.33
22651;BME280;11492;42.646;23.400;2023-04-09T11:46:32;95187.28;;;13.65;42.21
22651;BME280;11492;42.646;23.400;2023-04-09T11:48:58;95181.50;;;13.63;41.87
22651;BME280;11492;42.646;23.400;2023-04-09T11:51:25;95194.13;;;13.66;41.16
22651;BME280;11492;42.646;23.400;2023-04-09T11:53:51;95190.13;;;13.70;40.72
22651;BME280;11492;42.646;23.400;2023-04-09T11:56:17;95188.53;;;13.69;41.07
22651;BME280;11492;42.646;23.400;2023-04-09T11:58:47;95176.53;;;13.62;40.75
22651;BME280;11492;42.646;23.400;2023-04-09T12:01:13;95177.50;;;13.61;41.22
22651;BME280;11492;42.646;23.400;2023-04-09T12:03:39;95173.72;;;13.63;41.04
22651;BME280;11492;42.646;23.400;2023-04-09T12:06:06;95173.19;;;13.74;41.37
22651;BME280;11492;42.646;23.400;2023-04-09T12:08:34;95186.59;;;13.84;41.33
22651;BME280;11492;42.646;23.400;2023-04-09T12:11:11;95176.78;;;13.73;40.99
22651;BME280;11492;42.646;23.400;2023-04-09T12:13:37;95178.66;;;13.92;40.67
22651;BME280;11492;42.646;23.400;2023-04-09T12:16:07;95171.78;;;14.30;40.02
22651;BME280;11492;42.646;23.400;2023-04-09T12:18:35;95163.78;;;14.32;40.00
22651;BME280;11492;42.646;23.400;2023-04-09T12:21:02;95169.22;;;14.49;40.28
22651;BME280;11492;42.646;23.400;2023-04-09T12:23:27;95165.03;;;14.61;39.38
22651;BME280;11492;42.646;23.400;2023-04-09T12:25:55;95162.84;;;14.77;40.38
22651;BME280;11492;42.646;23.400;2023-04-09T12:28:24;95174.06;;;14.91;41.04
22651;BME280;11492;42.646;23.400;2023-04-09T12:30:49;95165.63;;;14.70;41.24
22651;BME280;11492;42.646;23.400;2023-04-09T12:33:15;95163.44;;;14.67;41.88
22651;BME280;11492;42.646;23.400;2023-04-09T12:35:40;95158.03;;;14.94;39.75
22651;BME280;11492;42.646;23.400;2023-04-09T12:38:06;95158.44;;;15.22;38.80
22651;BME280;11492;42.646;23.400;2023-04-09T12:40:32;95153.19;;;15.48;39.83
22651;BME280;11492;42.646;23.400;2023-04-09T12:42:57;95140.00;;;15.43;40.27
22651;BME280;11492;42.646;23.400;2023-04-09T12:45:23;95154.81;;;15.36;40.63
22651;BME280;11492;42.646;23.400;2023-04-09T12:47:48;95152.41;;;15.35;41.13
22651;BME280;11492;42.646;23.400;2023-04-09T12:50:14;95157.66;;;15.09;41.51
22651;BME280;11492;42.646;23.400;2023-04-09T12:52:43;95145.03;;;15.19;40.89
22651;BME280;11492;42.646;23.400;2023-04-09T12:55:09;95158.84;;;15.32;41.40
22651;BME280;11492;42.646;23.400;2023-04-09T12:57:36;95142.84;;;14.78;42.00
22651;BME280;11492;42.646;23.400;2023-04-09T13:00:02;95155.66;;;14.86;41.75
22651;BME280;11492;42.646;23.400;2023-04-09T13:02:29;95153.25;;;14.84;42.03
22651;BME280;11492;42.646;23.400;2023-04-09T13:04:54;95146.88;;;14.80;43.13
22651;BME280;11492;42.646;23.400;2023-04-09T13:07:20;95143.47;;;14.54;42.87